sensor_id;sensor_type;location;lat;lon;timestamp;P1;durP1;ratioP1;P2;durP2;ratioP2
55292;SDS011;41157;53.560;10.098;2024-01-15T00:01:44;9.27;;;1.70;;
55292;SDS011;41157;53.560;10.098;2024-01-15T00:04:11;9.73;;;1.67;;
55292;SDS011;41157;53.560;10.098;2024-01-15T00:06:39;9.20;;;1.97;;
55292;SDS011;41157;53.560;10.098;2024-01-15T00:09:06;2.23;;;1.30;;
55292;SDS011;41157;53.560;10.098;2024-01-15T00:11:33;5.30;;;1.60;;
55292;SDS011;41157;53.560;10.098;2024-01-15T00:14:00;13.30;;;2.20;;
55292;SDS011;41157;53.560;10.098;2024-01-15T00:16:28;11.17;;;1.93;;
55292;SDS011;41157;53.560;10.098;2024-01-15T00:18:55;6.97;;;1.70;;
55292;SDS011;41157;53.560;10.098;2024-01-15T00:21:22;7.13;;;1.80;;
55292;SDS011;41157;53.560;10.098;2024-01-15T00:23:50;6.60;;;1.60;;
55292;SDS011;41157;53.560;10.098;2024-01-15T00:26:17;8.63;;;1.80;;
55292;SDS011;41157;53.560;10.098;2024-01-15T00:28:44;5.60;;;1.40;;
55292;SDS011;41157;53.560;10.098;2024-01-15T00:31:11;8.07;;;1.97;;
55292;SDS011;41157;53.560;10.098;2024-01-15T00:33:38;6.70;;;1.93;;
55292;SDS011;41157;53.560;10.098;2024-01-15T00:36:05;8.23;;;1.63;;
55292;SDS011;41157;53.560;10.098;2024-01-15T00:38:32;11.07;;;2.20;;
55292;SDS011;41157;53.560;10.098;2024-01-15T00:41:01;13.70;;;1.90;;
55292;SDS011;41157;53.560;10.098;2024-01-15T00:43:28;8.17;;;1.90;;
55292;SDS011;41157;53.560;10.098;2024-01-15T00:45:55;11.60;;;2.10;;
55292;SDS011;41157;53.560;10.098;2024-01-15T00:48:22;6.43;;;1.77;;
55292;SDS011;41157;53.560;10.098;2024-01-15T00:50:49;3.87;;;1.20;;
55292;SDS011;41157;53.560;10.098;2024-01-15T00:53:16;6.07;;;1.90;;
55292;SDS011;41157;53.560;10.098;2024-01-15T00:55:43;7.27;;;1.70;;
55292;SDS011;41157;53.560;10.098;2024-01-15T00:58:11;5.80;;;1.90;;
55292;SDS011;41157;53.560;10.098;2024-01-15T01:00:38;5.67;;;1.57;;
55292;SDS011;41157;53.560;10.098;2024-01-15T01:03:05;9.50;;;2.00;;
55292;SDS011;41157;53.560;10.098;2024-01-15T01:05:32;8.90;;;1.60;;
55292;SDS011;41157;53.560;10.098;2024-01-15T01:07:59;4.97;;;1.60;;
55292;SDS011;41157;53.560;10.098;2024-01-15T01:10:26;4.80;;;1.97;;
55292;SDS011;41157;53.560;10.098;2024-01-15T01:12:53;14.60;;;2.17;;
55292;SDS011;41157;53.560;10.098;2024-01-15T01:15:22;9.03;;;2.00;;
55292;SDS011;41157;53.560;10.098;2024-01-15T01:17:49;6.77;;;2.07;;
55292;SDS011;41157;53.560;10.098;2024-01-15T01:20:16;6.33;;;1.80;;
55292;SDS011;41157;53.560;10.098;2024-01-15T01:22:43;15.93;;;2.67;;
55292;SDS011;41157;53.560;10.098;2024-01-15T01:25:10;6.23;;;1.90;;
55292;SDS011;41157;53.560;10.098;2024-01-15T01:27:37;7.73;;;1.73;;
55292;SDS011;41157;53.560;10.098;2024-01-15T01:30:05;7.13;;;1.77;;
55292;SDS011;41157;53.560;10.098;2024-01-15T01:32:33;3.13;;;1.73;;
55292;SDS011;41157;53.560;10.098;2024-01-15T01:35:00;11.77;;;1.90;;
55292;SDS011;41157;53.560;10.098;2024-01-15T01:37:27;10.60;;;1.67;;
55292;SDS011;41157;53.560;10.098;2024-01-15T01:39:54;10.27;;;2.03;;
55292;SDS011;41157;53.560;10.098;2024-01-15T01:42:21;11.17;;;1.90;;
55292;SDS011;41157;53.560;10.098;2024-01-15T01:44:48;10.17;;;2.90;;
55292;SDS011;41157;53.560;10.098;2024-01-15T01:47:15;17.00;;;1.93;;
55292;SDS011;41157;53.560;10.098;2024-01-15T01:49:44;9.97;;;2.80;;
55292;SDS011;41157;53.560;10.098;2024-01-15T01:52:11;13.50;;;2.30;;
55292;SDS011;41157;53.560;10.098;2024-01-15T01:54:38;6.37;;;1.57;;
55292;SDS011;41157;53.560;10.098;2024-01-15T01:57:07;5.90;;;1.67;;
55292;SDS011;41157;53.560;10.098;2024-01-15T01:59:35;11.60;;;2.77;;
55292;SDS011;41157;53.560;10.098;2024-01-15T02:02:03;8.63;;;1.80;;
55292;SDS011;41157;53.560;10.098;2024-01-15T02:04:31;8.77;;;1.73;;
55292;SDS011;41157;53.560;10.098;2024-01-15T02:07:00;11.93;;;2.17;;
55292;SDS011;41157;53.560;10.098;2024-01-15T02:09:27;6.40;;;2.67;;
55292;SDS011;41157;53.560;10.098;2024-01-15T02:11:54;5.17;;;1.43;;
55292;SDS011;41157;53.560;10.098;2024-01-15T02:14:21;12.23;;;2.00;;
55292;SDS011;41157;53.560;10.098;2024-01-15T02:16:48;5.40;;;1.70;;
55292;SDS011;41157;53.560;10.098;2024-01-15T02:19:15;7.90;;;1.80;;
55292;SDS011;41157;53.560;10.098;2024-01-15T02:21:43;4.67;;;1.30;;
55292;SDS011;41157;53.560;10.098;2024-01-15T02:24:11;4.70;;;1.40;;
55292;SDS011;41157;53.560;10.098;2024-01-15T02:26:38;7.43;;;1.77;;
55292;SDS011;41157;53.560;10.098;2024-01-15T02:29:05;6.43;;;1.60;;
55292;SDS011;41157;53.560;10.098;2024-01-15T02:31:33;4.67;;;1.23;;
55292;SDS011;41157;53.560;10.098;2024-01-15T02:34:00;5.30;;;1.30;;
55292;SDS011;41157;53.560;10.098;2024-01-15T02:36:27;4.50;;;1.60;;
55292;SDS011;41157;53.560;10.098;2024-01-15T02:38:54;5.70;;;1.13;;
55292;SDS011;41157;53.560;10.098;2024-01-15T02:41:22;4.20;;;1.40;;
55292;SDS011;41157;53.560;10.098;2024-01-15T02:43:49;12.87;;;1.57;;
55292;SDS011;41157;53.560;10.098;2024-01-15T02:46:16;9.43;;;1.60;;
55292;SDS011;41157;53.560;10.098;2024-01-15T02:48:44;4.50;;;1.80;;
55292;SDS011;41157;53.560;10.098;2024-01-15T02:51:11;4.90;;;1.53;;
55292;SDS011;41157;53.560;10.098;2024-01-15T02:53:38;6.40;;;1.83;;
55292;SDS011;41157;53.560;10.098;2024-01-15T02:56:06;4.93;;;1.67;;
55292;SDS011;41157;53.560;10.098;2024-01-15T02:58:34;8.27;;;2.07;;
55292;SDS011;41157;53.560;10.098;2024-01-15T03:01:01;6.37;;;1.77;;
55292;SDS011;41157;53.560;10.098;2024-01-15T03:03:29;6.70;;;1.47;;
55292;SDS011;41157;53.560;10.098;2024-01-15T03:05:56;7.67;;;1.77;;
55292;SDS011;41157;53.560;10.098;2024-01-15T03:08:23;4.17;;;1.40;;
55292;SDS011;41157;53.560;10.098;2024-01-15T03:10:50;7.43;;;1.40;;
55292;SDS011;41157;53.560;10.098;2024-01-15T03:13:16;8.90;;;1.80;;
55292;SDS011;41157;53.560;10.098;2024-01-15T03:15:45;10.73;;;1.70;;
55292;SDS011;41157;53.560;10.098;2024-01-15T03:18:12;7.97;;;1.80;;
55292;SDS011;41157;53.560;10.098;2024-01-15T03:20:39;7.67;;;1.13;;
55292;SDS011;41157;53.560;10.098;2024-01-15T03:23:06;6.77;;;1.97;;
55292;SDS011;41157;53.560;10.098;2024-01-15T03:25:33;12.30;;;2.10;;
55292;SDS011;41157;53.560;10.098;2024-01-15T03:28:00;5.63;;;1.70;;
55292;SDS011;41157;53.560;10.098;2024-01-15T03:30:27;8.03;;;1.90;;
55292;SDS011;41157;53.560;10.098;2024-01-15T03:32:55;8.80;;;1.70;;
55292;SDS011;41157;53.560;10.098;2024-01-15T03:35:22;6.87;;;1.70;;
55292;SDS011;41157;53.560;10.098;2024-01-15T03:37:54;6.83;;;1.90;;
55292;SDS011;41157;53.560;10.098;2024-01-15T03:40:21;8.20;;;1.57;;
55292;SDS011;41157;53.560;10.098;2024-01-15T03:42:48;9.97;;;1.60;;
55292;SDS011;41157;53.560;10.098;2024-01-15T03:45:15;11.57;;;2.10;;
55292;SDS011;41157;53.560;10.098;2024-01-15T03:47:42;7.90;;;1.90;;
55292;SDS011;41157;53.560;10.098;2024-01-15T03:50:10;16.27;;;2.30;;
55292;SDS011;41157;53.560;10.098;2024-01-15T03:52:37;6.93;;;1.57;;
55292;SDS011;41157;53.560;10.098;2024-01-15T03:55:05;9.20;;;2.23;;
55292;SDS011;41157;53.560;10.098;2024-01-15T03:57:32;7.63;;;1.97;;
55292;SDS011;41157;53.560;10.098;2024-01-15T03:59:59;12.27;;;2.87;;
55292;SDS011;41157;53.560;10.098;2024-01-15T04:02:26;9.33;;;1.80;;
55292;SDS011;41157;53.560;10.098;2024-01-15T04:04:52;10.40;;;1.87;;
55292;SDS011;41157;53.560;10.098;2024-01-15T04:07:21;7.27;;;2.07;;
55292;SDS011;41157;53.560;10.098;2024-01-15T04:09:48;7.03;;;2.07;;
55292;SDS011;41157;53.560;10.098;2024-01-15T04:12:15;13.37;;;2.63;;
55292;SDS011;41157;53.560;10.098;2024-01-15T04:14:42;8.43;;;2.10;;
55292;SDS011;41157;53.560;10.098;2024-01-15T04:17:09;7.90;;;2.17;;
55292;SDS011;41157;53.560;10.098;2024-01-15T04:19:36;15.27;;;2.20;;
55292;SDS011;41157;53.560;10.098;2024-01-15T04:22:03;11.20;;;1.67;;
55292;SDS011;41157;53.560;10.098;2024-01-15T04:24:32;13.77;;;2.57;;
55292;SDS011;41157;53.560;10.098;2024-01-15T04:26:59;12.07;;;2.20;;
55292;SDS011;41157;53.560;10.098;2024-01-15T04:29:26;15.10;;;2.70;;
55292;SDS011;41157;53.560;10.098;2024-01-15T04:31:53;7.50;;;1.80;;
55292;SDS011;41157;53.560;10.098;2024-01-15T04:34:20;14.60;;;2.70;;
55292;SDS011;41157;53.560;10.098;2024-01-15T04:36:47;16.10;;;2.17;;
55292;SDS011;41157;53.560;10.098;2024-01-15T04:39:14;9.97;;;3.07;;
55292;SDS011;41157;53.560;10.098;2024-01-15T04:41:43;10.57;;;2.40;;
55292;SDS011;41157;53.560;10.098;2024-01-15T04:44:09;13.37;;;2.30;;
55292;SDS011;41157;53.560;10.098;2024-01-15T04:46:36;12.60;;;2.27;;
55292;SDS011;41157;53.560;10.098;2024-01-15T04:49:03;13.10;;;2.47;;
55292;SDS011;41157;53.560;10.098;2024-01-15T04:51:30;17.27;;;2.37;;
55292;SDS011;41157;53.560;10.098;2024-01-15T04:53:57;22.27;;;2.80;;
55292;SDS011;41157;53.560;10.098;2024-01-15T04:56:24;11.57;;;2.40;;
55292;SDS011;41157;53.560;10.098;2024-01-15T04:58:53;10.77;;;1.57;;
55292;SDS011;41157;53.560;10.098;2024-01-15T05:01:20;14.50;;;2.53;;
55292;SDS011;41157;53.560;10.098;2024-01-15T05:03:47;11.43;;;2.47;;
55292;SDS011;41157;53.560;10.098;2024-01-15T05:06:14;17.23;;;3.53;;
55292;SDS011;41157;53.560;10.098;2024-01-15T05:08:41;14.33;;;2.60;;
55292;SDS011;41157;53.560;10.098;2024-01-15T05:11:08;18.80;;;2.77;;
55292;SDS011;41157;53.560;10.098;2024-01-15T05:13:35;14.07;;;2.80;;
55292;SDS011;41157;53.560;10.098;2024-01-15T05:16:03;19.13;;;3.10;;
55292;SDS011;41157;53.560;10.098;2024-01-15T05:18:31;12.13;;;2.10;;
55292;SDS011;41157;53.560;10.098;2024-01-15T05:20:58;9.50;;;2.70;;
55292;SDS011;41157;53.560;10.098;2024-01-15T05:23:25;7.47;;;2.50;;
55292;SDS011;41157;53.560;10.098;2024-01-15T05:25:52;8.93;;;2.63;;
55292;SDS011;41157;53.560;10.098;2024-01-15T05:28:19;10.67;;;2.40;;
55292;SDS011;41157;53.560;10.098;2024-01-15T05:30:46;9.53;;;1.80;;
55292;SDS011;41157;53.560;10.098;2024-01-15T05:33:14;7.43;;;1.80;;
55292;SDS011;41157;53.560;10.098;2024-01-15T05:35:41;12.00;;;2.70;;
55292;SDS011;41157;53.560;10.098;2024-01-15T05:38:08;14.03;;;2.80;;
55292;SDS011;41157;53.560;10.098;2024-01-15T05:40:35;16.43;;;2.77;;
55292;SDS011;41157;53.560;10.098;2024-01-15T05:43:02;14.63;;;2.70;;
55292;SDS011;41157;53.560;10.098;2024-01-15T05:45:30;11.03;;;2.40;;
55292;SDS011;41157;53.560;10.098;2024-01-15T05:47:57;8.70;;;2.40;;
55292;SDS011;41157;53.560;10.098;2024-01-15T05:50:25;16.07;;;2.50;;
55292;SDS011;41157;53.560;10.098;2024-01-15T05:52:52;12.83;;;2.97;;
55292;SDS011;41157;53.560;10.098;2024-01-15T05:55:19;14.70;;;2.17;;
55292;SDS011;41157;53.560;10.098;2024-01-15T05:57:46;15.60;;;3.07;;
55292;SDS011;41157;53.560;10.098;2024-01-15T06:00:14;10.63;;;2.53;;
55292;SDS011;41157;53.560;10.098;2024-01-15T06:02:41;11.90;;;2.30;;
55292;SDS011;41157;53.560;10.098;2024-01-15T06:05:08;10.30;;;2.07;;
55292;SDS011;41157;53.560;10.098;2024-01-15T06:07:36;18.57;;;3.13;;
55292;SDS011;41157;53.560;10.098;2024-01-15T06:10:04;11.73;;;2.47;;
55292;SDS011;41157;53.560;10.098;2024-01-15T06:12:31;10.60;;;2.57;;
55292;SDS011;41157;53.560;10.098;2024-01-15T06:14:58;15.50;;;4.10;;
55292;SDS011;41157;53.560;10.098;2024-01-15T06:17:25;28.83;;;9.23;;
55292;SDS011;41157;53.560;10.098;2024-01-15T06:19:52;13.40;;;2.63;;
55292;SDS011;41157;53.560;10.098;2024-01-15T06:22:19;14.03;;;2.33;;
55292;SDS011;41157;53.560;10.098;2024-01-15T06:24:48;16.40;;;2.77;;
55292;SDS011;41157;53.560;10.098;2024-01-15T06:27:15;6.60;;;1.70;;
55292;SDS011;41157;53.560;10.098;2024-01-15T06:29:44;19.77;;;2.53;;
55292;SDS011;41157;53.560;10.098;2024-01-15T06:32:12;11.63;;;2.30;;
55292;SDS011;41157;53.560;10.098;2024-01-15T06:34:38;10.60;;;2.50;;
55292;SDS011;41157;53.560;10.098;2024-01-15T06:37:06;11.43;;;3.00;;
55292;SDS011;41157;53.560;10.098;2024-01-15T06:39:33;17.00;;;2.70;;
55292;SDS011;41157;53.560;10.098;2024-01-15T06:42:02;13.20;;;2.27;;
55292;SDS011;41157;53.560;10.098;2024-01-15T06:44:29;14.97;;;2.63;;
55292;SDS011;41157;53.560;10.098;2024-01-15T06:46:56;13.67;;;2.03;;
55292;SDS011;41157;53.560;10.098;2024-01-15T06:49:27;10.93;;;2.10;;
55292;SDS011;41157;53.560;10.098;2024-01-15T06:51:54;14.13;;;2.20;;
55292;SDS011;41157;53.560;10.098;2024-01-15T06:54:21;11.50;;;2.43;;
55292;SDS011;41157;53.560;10.098;2024-01-15T06:56:49;14.90;;;2.27;;
55292;SDS011;41157;53.560;10.098;2024-01-15T06:59:17;17.43;;;2.50;;
55292;SDS011;41157;53.560;10.098;2024-01-15T07:01:44;10.50;;;2.43;;
55292;SDS011;41157;53.560;10.098;2024-01-15T07:04:11;11.30;;;2.30;;
55292;SDS011;41157;53.560;10.098;2024-01-15T07:06:38;7.97;;;2.40;;
55292;SDS011;41157;53.560;10.098;2024-01-15T07:09:05;12.67;;;2.20;;
55292;SDS011;41157;53.560;10.098;2024-01-15T07:11:34;7.20;;;2.57;;
55292;SDS011;41157;53.560;10.098;2024-01-15T07:14:01;9.27;;;2.20;;
55292;SDS011;41157;53.560;10.098;2024-01-15T07:16:29;13.80;;;2.97;;
55292;SDS011;41157;53.560;10.098;2024-01-15T07:18:56;9.97;;;2.57;;
55292;SDS011;41157;53.560;10.098;2024-01-15T07:21:23;10.97;;;1.80;;
55292;SDS011;41157;53.560;10.098;2024-01-15T07:23:50;9.60;;;1.90;;
55292;SDS011;41157;53.560;10.098;2024-01-15T07:26:17;10.93;;;2.13;;
55292;SDS011;41157;53.560;10.098;2024-01-15T07:28:44;9.00;;;1.90;;
55292;SDS011;41157;53.560;10.098;2024-01-15T07:31:11;11.73;;;2.13;;
55292;SDS011;41157;53.560;10.098;2024-01-15T07:33:39;9.10;;;2.17;;
55292;SDS011;41157;53.560;10.098;2024-01-15T07:36:06;11.83;;;2.20;;
55292;SDS011;41157;53.560;10.098;2024-01-15T07:38:33;9.87;;;1.90;;
55292;SDS011;41157;53.560;10.098;2024-01-15T07:41:00;15.97;;;2.10;;
55292;SDS011;41157;53.560;10.098;2024-01-15T07:43:27;5.77;;;1.30;;
55292;SDS011;41157;53.560;10.098;2024-01-15T07:45:54;9.93;;;2.27;;
55292;SDS011;41157;53.560;10.098;2024-01-15T07:48:22;5.73;;;1.77;;
55292;SDS011;41157;53.560;10.098;2024-01-15T07:50:50;14.93;;;1.87;;
55292;SDS011;41157;53.560;10.098;2024-01-15T07:53:17;6.80;;;1.83;;
55292;SDS011;41157;53.560;10.098;2024-01-15T07:55:44;12.03;;;1.87;;
55292;SDS011;41157;53.560;10.098;2024-01-15T07:58:12;10.10;;;2.17;;
55292;SDS011;41157;53.560;10.098;2024-01-15T08:00:39;6.17;;;1.67;;
55292;SDS011;41157;53.560;10.098;2024-01-15T08:03:05;5.43;;;1.33;;
55292;SDS011;41157;53.560;10.098;2024-01-15T08:05:32;7.57;;;1.80;;
55292;SDS011;41157;53.560;10.098;2024-01-15T08:08:01;11.17;;;2.20;;
55292;SDS011;41157;53.560;10.098;2024-01-15T08:10:28;5.80;;;1.77;;
55292;SDS011;41157;53.560;10.098;2024-01-15T08:12:55;6.40;;;1.73;;
55292;SDS011;41157;53.560;10.098;2024-01-15T08:15:22;14.07;;;1.90;;
55292;SDS011;41157;53.560;10.098;2024-01-15T08:17:49;7.23;;;1.67;;
55292;SDS011;41157;53.560;10.098;2024-01-15T08:20:16;10.47;;;1.93;;
55292;SDS011;41157;53.560;10.098;2024-01-15T08:22:43;4.57;;;1.50;;
55292;SDS011;41157;53.560;10.098;2024-01-15T08:25:13;8.17;;;1.80;;
55292;SDS011;41157;53.560;10.098;2024-01-15T08:27:40;13.43;;;2.00;;
55292;SDS011;41157;53.560;10.098;2024-01-15T08:30:08;13.43;;;1.83;;
55292;SDS011;41157;53.560;10.098;2024-01-15T08:32:35;8.17;;;1.57;;
55292;SDS011;41157;53.560;10.098;2024-01-15T08:35:06;11.53;;;1.83;;
55292;SDS011;41157;53.560;10.098;2024-01-15T08:37:33;10.03;;;2.13;;
55292;SDS011;41157;53.560;10.098;2024-01-15T08:40:00;6.47;;;1.60;;
55292;SDS011;41157;53.560;10.098;2024-01-15T08:42:28;5.50;;;1.53;;
55292;SDS011;41157;53.560;10.098;2024-01-15T08:44:55;4.40;;;1.50;;
55292;SDS011;41157;53.560;10.098;2024-01-15T08:47:22;15.87;;;2.03;;
55292;SDS011;41157;53.560;10.098;2024-01-15T08:49:49;6.53;;;1.57;;
55292;SDS011;41157;53.560;10.098;2024-01-15T08:52:16;9.00;;;1.57;;
55292;SDS011;41157;53.560;10.098;2024-01-15T08:54:45;5.50;;;1.43;;
55292;SDS011;41157;53.560;10.098;2024-01-15T08:57:12;7.57;;;1.77;;
55292;SDS011;41157;53.560;10.098;2024-01-15T08:59:40;5.27;;;1.80;;
55292;SDS011;41157;53.560;10.098;2024-01-15T09:02:07;5.40;;;1.40;;
55292;SDS011;41157;53.560;10.098;2024-01-15T09:04:34;3.70;;;1.40;;
55292;SDS011;41157;53.560;10.098;2024-01-15T09:07:01;6.03;;;1.30;;
55292;SDS011;41157;53.560;10.098;2024-01-15T09:09:28;5.77;;;1.87;;
55292;SDS011;41157;53.560;10.098;2024-01-15T09:11:55;6.73;;;1.50;;
55292;SDS011;41157;53.560;10.098;2024-01-15T09:14:22;15.30;;;1.80;;
55292;SDS011;41157;53.560;10.098;2024-01-15T09:16:53;7.40;;;1.50;;
55292;SDS011;41157;53.560;10.098;2024-01-15T09:19:21;7.60;;;1.87;;
55292;SDS011;41157;53.560;10.098;2024-01-15T09:21:48;6.03;;;1.73;;
55292;SDS011;41157;53.560;10.098;2024-01-15T09:24:15;6.03;;;1.60;;
55292;SDS011;41157;53.560;10.098;2024-01-15T09:26:42;6.10;;;1.30;;
55292;SDS011;41157;53.560;10.098;2024-01-15T09:29:09;7.83;;;1.60;;
55292;SDS011;41157;53.560;10.098;2024-01-15T09:31:36;5.77;;;2.03;;
55292;SDS011;41157;53.560;10.098;2024-01-15T09:34:05;5.43;;;1.70;;
55292;SDS011;41157;53.560;10.098;2024-01-15T09:36:32;8.77;;;1.70;;
55292;SDS011;41157;53.560;10.098;2024-01-15T09:38:59;12.83;;;1.97;;
55292;SDS011;41157;53.560;10.098;2024-01-15T09:41:26;11.43;;;1.73;;
55292;SDS011;41157;53.560;10.098;2024-01-15T09:43:53;7.73;;;1.73;;
55292;SDS011;41157;53.560;10.098;2024-01-15T09:46:20;9.50;;;2.23;;
55292;SDS011;41157;53.560;10.098;2024-01-15T09:48:47;6.17;;;1.90;;
55292;SDS011;41157;53.560;10.098;2024-01-15T09:51:16;6.37;;;1.90;;
55292;SDS011;41157;53.560;10.098;2024-01-15T09:53:42;4.67;;;1.90;;
55292;SDS011;41157;53.560;10.098;2024-01-15T09:56:10;10.50;;;1.77;;
55292;SDS011;41157;53.560;10.098;2024-01-15T09:58:37;8.73;;;1.90;;
55292;SDS011;41157;53.560;10.098;2024-01-15T10:01:06;2.93;;;1.50;;
55292;SDS011;41157;53.560;10.098;2024-01-15T10:03:34;4.93;;;1.53;;
55292;SDS011;41157;53.560;10.098;2024-01-15T10:06:03;4.97;;;1.30;;
55292;SDS011;41157;53.560;10.098;2024-01-15T10:08:31;5.37;;;1.40;;
55292;SDS011;41157;53.560;10.098;2024-01-15T10:10:58;11.10;;;1.90;;
55292;SDS011;41157;53.560;10.098;2024-01-15T10:13:25;7.83;;;1.60;;
55292;SDS011;41157;53.560;10.098;2024-01-15T10:15:52;8.13;;;2.17;;
55292;SDS011;41157;53.560;10.098;2024-01-15T10:18:19;5.53;;;1.40;;
55292;SDS011;41157;53.560;10.098;2024-01-15T10:20:46;7.30;;;1.73;;
55292;SDS011;41157;53.560;10.098;2024-01-15T10:23:14;6.43;;;1.83;;
55292;SDS011;41157;53.560;10.098;2024-01-15T10:25:42;3.13;;;1.43;;
55292;SDS011;41157;53.560;10.098;2024-01-15T10:28:09;4.10;;;0.80;;
55292;SDS011;41157;53.560;10.098;2024-01-15T10:30:36;3.50;;;1.50;;
55292;SDS011;41157;53.560;10.098;2024-01-15T10:33:04;2.30;;;1.10;;
55292;SDS011;41157;53.560;10.098;2024-01-15T10:35:31;5.40;;;1.43;;
55292;SDS011;41157;53.560;10.098;2024-01-15T10:37:58;9.27;;;3.90;;
55292;SDS011;41157;53.560;10.098;2024-01-15T10:40:25;9.80;;;2.10;;
55292;SDS011;41157;53.560;10.098;2024-01-15T10:42:53;5.30;;;1.20;;
55292;SDS011;41157;53.560;10.098;2024-01-15T10:45:20;1.23;;;1.00;;
55292;SDS011;41157;53.560;10.098;2024-01-15T10:47:47;6.70;;;1.30;;
55292;SDS011;41157;53.560;10.098;2024-01-15T10:50:15;5.37;;;1.23;;
55292;SDS011;41157;53.560;10.098;2024-01-15T10:52:42;4.73;;;1.50;;
55292;SDS011;41157;53.560;10.098;2024-01-15T10:55:09;2.57;;;1.23;;
55292;SDS011;41157;53.560;10.098;2024-01-15T10:57:36;2.40;;;1.27;;
55292;SDS011;41157;53.560;10.098;2024-01-15T11:00:06;3.97;;;1.33;;
55292;SDS011;41157;53.560;10.098;2024-01-15T11:02:34;3.73;;;1.10;;
55292;SDS011;41157;53.560;10.098;2024-01-15T11:05:02;6.33;;;1.67;;
55292;SDS011;41157;53.560;10.098;2024-01-15T11:07:30;5.70;;;1.30;;
55292;SDS011;41157;53.560;10.098;2024-01-15T11:09:57;3.70;;;1.37;;
55292;SDS011;41157;53.560;10.098;2024-01-15T11:12:24;2.10;;;1.03;;
55292;SDS011;41157;53.560;10.098;2024-01-15T11:14:51;4.30;;;1.17;;
55292;SDS011;41157;53.560;10.098;2024-01-15T11:17:21;2.87;;;1.10;;
55292;SDS011;41157;53.560;10.098;2024-01-15T11:19:48;4.50;;;1.07;;
55292;SDS011;41157;53.560;10.098;2024-01-15T11:25:17;4.13;;;0.97;;
55292;SDS011;41157;53.560;10.098;2024-01-15T11:27:45;5.83;;;1.00;;
55292;SDS011;41157;53.560;10.098;2024-01-15T11:30:14;1.67;;;1.07;;
55292;SDS011;41157;53.560;10.098;2024-01-15T11:32:43;1.10;;;0.80;;
55292;SDS011;41157;53.560;10.098;2024-01-15T11:35:11;3.27;;;1.10;;
55292;SDS011;41157;53.560;10.098;2024-01-15T11:37:58;1.33;;;1.00;;
55292;SDS011;41157;53.560;10.098;2024-01-15T11:40:36;1.97;;;1.20;;
55292;SDS011;41157;53.560;10.098;2024-01-15T11:43:03;3.23;;;1.10;;
55292;SDS011;41157;53.560;10.098;2024-01-15T11:45:31;3.57;;;1.37;;
55292;SDS011;41157;53.560;10.098;2024-01-15T11:48:15;1.83;;;1.17;;
55292;SDS011;41157;53.560;10.098;2024-01-15T11:50:43;2.13;;;1.40;;
55292;SDS011;41157;53.560;10.098;2024-01-15T11:53:13;2.77;;;1.30;;
55292;SDS011;41157;53.560;10.098;2024-01-15T11:55:43;1.57;;;1.10;;
55292;SDS011;41157;53.560;10.098;2024-01-15T11:58:11;4.23;;;1.30;;
55292;SDS011;41157;53.560;10.098;2024-01-15T12:00:42;6.53;;;1.10;;
55292;SDS011;41157;53.560;10.098;2024-01-15T12:03:09;4.27;;;1.03;;
55292;SDS011;41157;53.560;10.098;2024-01-15T12:05:38;2.27;;;1.53;;
55292;SDS011;41157;53.560;10.098;2024-01-15T12:08:06;2.33;;;1.17;;
55292;SDS011;41157;53.560;10.098;2024-01-15T12:10:35;1.23;;;1.13;;
55292;SDS011;41157;53.560;10.098;2024-01-15T12:13:04;1.60;;;1.23;;
55292;SDS011;41157;53.560;10.098;2024-01-15T12:15:32;2.20;;;1.00;;
55292;SDS011;41157;53.560;10.098;2024-01-15T12:17:59;1.30;;;1.20;;
55292;SDS011;41157;53.560;10.098;2024-01-15T12:20:27;1.93;;;1.20;;
55292;SDS011;41157;53.560;10.098;2024-01-15T12:22:56;3.73;;;1.40;;
55292;SDS011;41157;53.560;10.098;2024-01-15T12:25:23;4.47;;;0.97;;
55292;SDS011;41157;53.560;10.098;2024-01-15T12:27:52;2.07;;;1.23;;
55292;SDS011;41157;53.560;10.098;2024-01-15T12:30:19;1.23;;;1.13;;
55292;SDS011;41157;53.560;10.098;2024-01-15T12:32:46;2.77;;;1.10;;
55292;SDS011;41157;53.560;10.098;2024-01-15T12:35:13;2.70;;;1.00;;
55292;SDS011;41157;53.560;10.098;2024-01-15T12:37:41;5.40;;;1.20;;
55292;SDS011;41157;53.560;10.098;2024-01-15T12:40:10;4.23;;;1.10;;
55292;SDS011;41157;53.560;10.098;2024-01-15T12:42:37;5.47;;;1.27;;
55292;SDS011;41157;53.560;10.098;2024-01-15T12:45:06;1.50;;;1.00;;
55292;SDS011;41157;53.560;10.098;2024-01-15T12:47:33;1.97;;;1.00;;
55292;SDS011;41157;53.560;10.098;2024-01-15T12:50:00;5.87;;;1.20;;
55292;SDS011;41157;53.560;10.098;2024-01-15T12:52:27;2.57;;;1.23;;
55292;SDS011;41157;53.560;10.098;2024-01-15T12:54:55;2.07;;;1.20;;
55292;SDS011;41157;53.560;10.098;2024-01-15T12:57:23;2.37;;;1.37;;
55292;SDS011;41157;53.560;10.098;2024-01-15T12:59:50;1.57;;;1.03;;
55292;SDS011;41157;53.560;10.098;2024-01-15T13:02:17;3.03;;;1.00;;
55292;SDS011;41157;53.560;10.098;2024-01-15T13:04:44;4.10;;;1.27;;
55292;SDS011;41157;53.560;10.098;2024-01-15T13:07:11;3.00;;;1.07;;
55292;SDS011;41157;53.560;10.098;2024-01-15T13:09:39;2.03;;;0.80;;
55292;SDS011;41157;53.560;10.098;2024-01-15T13:12:06;1.30;;;1.10;;
55292;SDS011;41157;53.560;10.098;2024-01-15T13:14:34;1.90;;;0.93;;
55292;SDS011;41157;53.560;10.098;2024-01-15T13:17:01;0.90;;;0.90;;
55292;SDS011;41157;53.560;10.098;2024-01-15T13:19:29;3.53;;;1.00;;
55292;SDS011;41157;53.560;10.098;2024-01-15T13:21:58;4.17;;;1.27;;
55292;SDS011;41157;53.560;10.098;2024-01-15T13:24:26;0.93;;;0.93;;
55292;SDS011;41157;53.560;10.098;2024-01-15T13:26:53;2.00;;;0.80;;
55292;SDS011;41157;53.560;10.098;2024-01-15T13:29:20;0.77;;;0.77;;
55292;SDS011;41157;53.560;10.098;2024-01-15T13:31:48;1.10;;;1.10;;
55292;SDS011;41157;53.560;10.098;2024-01-15T13:34:15;2.67;;;1.40;;
55292;SDS011;41157;53.560;10.098;2024-01-15T13:36:42;3.67;;;1.00;;
55292;SDS011;41157;53.560;10.098;2024-01-15T13:39:09;1.33;;;1.17;;
55292;SDS011;41157;53.560;10.098;2024-01-15T13:41:36;3.53;;;1.30;;
55292;SDS011;41157;53.560;10.098;2024-01-15T13:44:03;3.70;;;1.10;;
55292;SDS011;41157;53.560;10.098;2024-01-15T13:46:30;5.07;;;1.10;;
55292;SDS011;41157;53.560;10.098;2024-01-15T13:49:00;3.50;;;1.03;;
55292;SDS011;41157;53.560;10.098;2024-01-15T13:51:27;1.20;;;1.10;;
55292;SDS011;41157;53.560;10.098;2024-01-15T13:53:54;1.97;;;0.90;;
55292;SDS011;41157;53.560;10.098;2024-01-15T13:56:21;1.80;;;1.13;;
55292;SDS011;41157;53.560;10.098;2024-01-15T13:58:48;2.77;;;1.17;;
55292;SDS011;41157;53.560;10.098;2024-01-15T14:01:17;1.67;;;1.07;;
55292;SDS011;41157;53.560;10.098;2024-01-15T14:03:44;0.87;;;0.83;;
55292;SDS011;41157;53.560;10.098;2024-01-15T14:06:12;2.47;;;1.23;;
55292;SDS011;41157;53.560;10.098;2024-01-15T14:08:39;2.00;;;1.10;;
55292;SDS011;41157;53.560;10.098;2024-01-15T14:11:06;2.43;;;1.20;;
55292;SDS011;41157;53.560;10.098;2024-01-15T14:13:33;1.13;;;0.83;;
55292;SDS011;41157;53.560;10.098;2024-01-15T14:16:00;3.50;;;1.20;;
55292;SDS011;41157;53.560;10.098;2024-01-15T14:18:27;2.83;;;1.20;;
55292;SDS011;41157;53.560;10.098;2024-01-15T14:20:54;1.50;;;1.30;;
55292;SDS011;41157;53.560;10.098;2024-01-15T14:23:22;2.97;;;1.60;;
55292;SDS011;41157;53.560;10.098;2024-01-15T14:25:49;1.23;;;1.00;;
55292;SDS011;41157;53.560;10.098;2024-01-15T14:28:16;1.63;;;1.40;;
55292;SDS011;41157;53.560;10.098;2024-01-15T14:30:43;2.37;;;1.40;;
55292;SDS011;41157;53.560;10.098;2024-01-15T14:33:10;2.23;;;1.27;;
55292;SDS011;41157;53.560;10.098;2024-01-15T14:35:37;1.23;;;1.13;;